首页
METAR-TAF:

METAR-TAF

机场 :

巴馬科國際機場

巴馬科, 马里共和国

纬度: 12-32N, 经度: 007-57W, 海拔: 380米

当前天气观测

该预报发布于20分钟前的17:30 UTC
风速4节,风向,在东北东转东南之间变化
温度 32°C
湿度 17%
气压 1014 hPa
能见度10公里或以上
1500米以下无云,无积雨云

METAR: GABS 121730Z 10004KT 050V120 CAVOK 32/04 Q1014 NOSIG

时间: 17:50 (17:50 UTC)

预报

该预报发布于50分钟前的17:00 UTC
预报有效从12日的 18点(UTC)到 13日的 24点(UTC)
风速8节,风向东转东北
能见度10公里或以上
1500米以下无云,无积雨云

TAF: GABS 121700Z 1218/1324 06008KT CAVOK

超过4000个机场的气象观测和天气预报(METAR&TAF报告)。

可查询的气象台以黄色和红色小点在地图上表示。

将鼠标移到小点上方,可查看气象台名称。

然后点击查看天气观测和预报。

如需切换地图:点击带黑十字的绿色按钮放大地图;点击带横线的绿色按钮缩小地图;或者点击绿色箭头查看邻近地区的地图。


METAR-TAF: